Terminal Aerodrome Forecast
Issued by NWS Austin/San Antonio, TX

Current Version | Previous Version | Text Only | Print | Product List | Glossary On
Versions: 1 2 3 4 5 6 7 8 9 10 11 12 13 14 15 16 17 18 19 20 21 22 23 24 25 26
005
FTUS44 KEWX 161136
TAFDRT
TAF
KDRT 161136Z 1612/1712 33004KT P6SM SCT250
     FM170600 03003KT P6SM SCT022 BKN080
     FM170900 03006KT P6SM VCSH OVC022=

USA.gov is the U.S. government's official web portal to all federal, state and local government web resources and services.